sensor_id;sensor_type;location;lat;lon;timestamp;P1;durP1;ratioP1;P2;durP2;ratioP2
58260;SDS011;44058;52.898;6.502;2023-01-01T00:00:47;28.80;;;18.90;;
58260;SDS011;44058;52.898;6.502;2023-01-01T00:03:13;23.48;;;15.88;;
58260;SDS011;44058;52.898;6.502;2023-01-01T00:05:39;26.08;;;18.35;;
58260;SDS011;44058;52.898;6.502;2023-01-01T00:08:06;17.95;;;13.57;;
58260;SDS011;44058;52.898;6.502;2023-01-01T00:10:33;23.52;;;15.38;;
58260;SDS011;44058;52.898;6.502;2023-01-01T00:12:59;21.30;;;16.23;;
58260;SDS011;44058;52.898;6.502;2023-01-01T00:15:26;27.92;;;18.10;;
58260;SDS011;44058;52.898;6.502;2023-01-01T00:17:52;26.02;;;18.60;;
58260;SDS011;44058;52.898;6.502;2023-01-01T00:20:19;28.83;;;19.30;;
58260;SDS011;44058;52.898;6.502;2023-01-01T00:22:45;26.00;;;19.42;;
58260;SDS011;44058;52.898;6.502;2023-01-01T00:25:11;29.92;;;20.73;;
58260;SDS011;44058;52.898;6.502;2023-01-01T00:27:40;33.75;;;22.13;;
58260;SDS011;44058;52.898;6.502;2023-01-01T00:30:06;33.63;;;23.90;;
58260;SDS011;44058;52.898;6.502;2023-01-01T00:32:32;31.98;;;22.83;;
58260;SDS011;44058;52.898;6.502;2023-01-01T00:34:59;33.67;;;22.75;;
58260;SDS011;44058;52.898;6.502;2023-01-01T00:37:26;33.90;;;23.52;;
58260;SDS011;44058;52.898;6.502;2023-01-01T00:39:52;32.00;;;23.08;;
58260;SDS011;44058;52.898;6.502;2023-01-01T00:42:19;35.70;;;23.42;;
58260;SDS011;44058;52.898;6.502;2023-01-01T00:44:46;29.88;;;21.38;;
58260;SDS011;44058;52.898;6.502;2023-01-01T00:47:12;28.45;;;21.30;;
58260;SDS011;44058;52.898;6.502;2023-01-01T00:49:38;26.58;;;20.30;;
58260;SDS011;44058;52.898;6.502;2023-01-01T00:52:04;32.47;;;21.55;;
58260;SDS011;44058;52.898;6.502;2023-01-01T00:54:30;30.10;;;21.92;;
58260;SDS011;44058;52.898;6.502;2023-01-01T00:56:57;31.02;;;21.77;;
58260;SDS011;44058;52.898;6.502;2023-01-01T00:59:23;29.20;;;20.83;;
58260;SDS011;44058;52.898;6.502;2023-01-01T01:01:49;30.52;;;20.55;;
58260;SDS011;44058;52.898;6.502;2023-01-01T01:04:15;31.55;;;21.33;;
58260;SDS011;44058;52.898;6.502;2023-01-01T01:06:42;27.77;;;20.77;;
58260;SDS011;44058;52.898;6.502;2023-01-01T01:09:08;30.67;;;20.27;;
58260;SDS011;44058;52.898;6.502;2023-01-01T01:11:34;29.35;;;20.60;;
58260;SDS011;44058;52.898;6.502;2023-01-01T01:14:01;28.65;;;20.73;;
58260;SDS011;44058;52.898;6.502;2023-01-01T01:16:28;33.80;;;21.10;;
58260;SDS011;44058;52.898;6.502;2023-01-01T01:18:59;26.13;;;19.70;;
58260;SDS011;44058;52.898;6.502;2023-01-01T01:21:37;29.15;;;19.60;;
58260;SDS011;44058;52.898;6.502;2023-01-01T01:24:03;28.52;;;20.40;;
58260;SDS011;44058;52.898;6.502;2023-01-01T01:26:30;26.73;;;19.05;;
58260;SDS011;44058;52.898;6.502;2023-01-01T01:28:57;26.55;;;19.38;;
58260;SDS011;44058;52.898;6.502;2023-01-01T01:31:26;33.47;;;20.02;;
58260;SDS011;44058;52.898;6.502;2023-01-01T01:33:52;30.88;;;19.95;;
58260;SDS011;44058;52.898;6.502;2023-01-01T01:36:19;25.95;;;19.67;;
58260;SDS011;44058;52.898;6.502;2023-01-01T01:38:45;27.60;;;20.60;;
58260;SDS011;44058;52.898;6.502;2023-01-01T01:41:16;36.03;;;21.17;;
58260;SDS011;44058;52.898;6.502;2023-01-01T01:46:16;24.23;;;18.10;;
58260;SDS011;44058;52.898;6.502;2023-01-01T01:48:44;30.27;;;20.45;;
58260;SDS011;44058;52.898;6.502;2023-01-01T01:51:11;27.65;;;18.67;;
58260;SDS011;44058;52.898;6.502;2023-01-01T01:53:40;27.83;;;18.50;;
58260;SDS011;44058;52.898;6.502;2023-01-01T01:56:14;27.30;;;19.42;;
58260;SDS011;44058;52.898;6.502;2023-01-01T01:58:41;27.45;;;18.45;;
58260;SDS011;44058;52.898;6.502;2023-01-01T02:01:07;29.10;;;18.27;;
58260;SDS011;44058;52.898;6.502;2023-01-01T02:03:44;29.83;;;18.10;;
58260;SDS011;44058;52.898;6.502;2023-01-01T02:06:16;27.13;;;17.33;;
58260;SDS011;44058;52.898;6.502;2023-01-01T02:08:42;22.45;;;16.25;;
58260;SDS011;44058;52.898;6.502;2023-01-01T02:11:10;23.33;;;16.00;;
58260;SDS011;44058;52.898;6.502;2023-01-01T02:13:36;28.35;;;16.48;;
58260;SDS011;44058;52.898;6.502;2023-01-01T02:21:21;20.70;;;13.55;;
58260;SDS011;44058;52.898;6.502;2023-01-01T02:26:41;19.95;;;12.13;;
58260;SDS011;44058;52.898;6.502;2023-01-01T02:29:21;17.67;;;11.82;;
58260;SDS011;44058;52.898;6.502;2023-01-01T02:31:56;17.27;;;11.07;;
58260;SDS011;44058;52.898;6.502;2023-01-01T02:34:26;18.20;;;11.95;;
58260;SDS011;44058;52.898;6.502;2023-01-01T02:36:53;16.92;;;10.55;;
58260;SDS011;44058;52.898;6.502;2023-01-01T02:39:20;16.33;;;10.27;;
58260;SDS011;44058;52.898;6.502;2023-01-01T02:41:48;20.35;;;10.52;;
58260;SDS011;44058;52.898;6.502;2023-01-01T02:44:16;17.52;;;10.23;;
58260;SDS011;44058;52.898;6.502;2023-01-01T02:46:42;17.20;;;9.73;;
58260;SDS011;44058;52.898;6.502;2023-01-01T02:49:09;16.67;;;9.32;;
58260;SDS011;44058;52.898;6.502;2023-01-01T02:54:16;10.23;;;7.78;;
58260;SDS011;44058;52.898;6.502;2023-01-01T03:02:21;14.65;;;6.63;;
58260;SDS011;44058;52.898;6.502;2023-01-01T03:04:52;14.00;;;7.10;;
58260;SDS011;44058;52.898;6.502;2023-01-01T03:07:25;11.02;;;6.20;;
58260;SDS011;44058;52.898;6.502;2023-01-01T03:09:59;13.18;;;6.43;;
58260;SDS011;44058;52.898;6.502;2023-01-01T03:12:30;14.77;;;6.22;;
58260;SDS011;44058;52.898;6.502;2023-01-01T03:17:40;9.63;;;5.40;;
58260;SDS011;44058;52.898;6.502;2023-01-01T03:20:11;11.70;;;5.68;;
58260;SDS011;44058;52.898;6.502;2023-01-01T03:22:38;14.52;;;5.07;;
58260;SDS011;44058;52.898;6.502;2023-01-01T03:25:11;12.55;;;5.45;;
58260;SDS011;44058;52.898;6.502;2023-01-01T03:27:43;9.43;;;3.85;;
58260;SDS011;44058;52.898;6.502;2023-01-01T03:30:10;12.02;;;4.30;;
58260;SDS011;44058;52.898;6.502;2023-01-01T03:32:38;10.63;;;4.18;;
58260;SDS011;44058;52.898;6.502;2023-01-01T03:35:25;12.25;;;4.00;;
58260;SDS011;44058;52.898;6.502;2023-01-01T03:38:01;9.52;;;3.78;;
58260;SDS011;44058;52.898;6.502;2023-01-01T03:40:30;11.70;;;3.95;;
58260;SDS011;44058;52.898;6.502;2023-01-01T03:43:00;7.20;;;2.83;;
58260;SDS011;44058;52.898;6.502;2023-01-01T03:45:28;8.30;;;3.45;;
58260;SDS011;44058;52.898;6.502;2023-01-01T03:47:55;14.25;;;3.25;;
58260;SDS011;44058;52.898;6.502;2023-01-01T03:50:24;8.32;;;3.25;;
58260;SDS011;44058;52.898;6.502;2023-01-01T03:53:00;7.53;;;2.88;;
58260;SDS011;44058;52.898;6.502;2023-01-01T03:55:38;11.27;;;3.08;;
58260;SDS011;44058;52.898;6.502;2023-01-01T04:00:36;9.27;;;2.70;;
58260;SDS011;44058;52.898;6.502;2023-01-01T04:03:14;7.55;;;3.10;;
58260;SDS011;44058;52.898;6.502;2023-01-01T04:05:41;8.90;;;2.80;;
58260;SDS011;44058;52.898;6.502;2023-01-01T04:08:08;12.10;;;3.13;;
58260;SDS011;44058;52.898;6.502;2023-01-01T04:10:36;9.75;;;3.08;;
58260;SDS011;44058;52.898;6.502;2023-01-01T04:13:04;9.75;;;2.83;;
58260;SDS011;44058;52.898;6.502;2023-01-01T04:15:34;8.13;;;3.10;;
58260;SDS011;44058;52.898;6.502;2023-01-01T04:18:01;7.32;;;2.78;;
58260;SDS011;44058;52.898;6.502;2023-01-01T04:20:29;6.38;;;2.13;;
58260;SDS011;44058;52.898;6.502;2023-01-01T04:22:57;6.88;;;2.90;;
58260;SDS011;44058;52.898;6.502;2023-01-01T04:25:23;6.80;;;2.50;;
58260;SDS011;44058;52.898;6.502;2023-01-01T04:27:50;7.43;;;2.65;;
58260;SDS011;44058;52.898;6.502;2023-01-01T04:30:17;8.65;;;2.10;;
58260;SDS011;44058;52.898;6.502;2023-01-01T04:32:43;6.35;;;2.42;;
58260;SDS011;44058;52.898;6.502;2023-01-01T04:35:09;6.10;;;2.30;;
58260;SDS011;44058;52.898;6.502;2023-01-01T04:37:37;10.27;;;2.88;;
58260;SDS011;44058;52.898;6.502;2023-01-01T04:40:04;6.38;;;2.30;;
58260;SDS011;44058;52.898;6.502;2023-01-01T04:42:30;11.38;;;3.25;;
58260;SDS011;44058;52.898;6.502;2023-01-01T04:44:56;8.35;;;2.75;;
58260;SDS011;44058;52.898;6.502;2023-01-01T04:47:22;6.22;;;2.70;;
58260;SDS011;44058;52.898;6.502;2023-01-01T04:49:51;12.05;;;2.95;;
58260;SDS011;44058;52.898;6.502;2023-01-01T04:52:18;6.82;;;2.47;;
58260;SDS011;44058;52.898;6.502;2023-01-01T04:54:44;8.25;;;2.20;;
58260;SDS011;44058;52.898;6.502;2023-01-01T04:57:11;7.18;;;2.38;;
58260;SDS011;44058;52.898;6.502;2023-01-01T04:59:37;8.85;;;2.65;;
58260;SDS011;44058;52.898;6.502;2023-01-01T05:02:03;6.30;;;1.90;;
58260;SDS011;44058;52.898;6.502;2023-01-01T05:04:29;9.40;;;2.17;;
58260;SDS011;44058;52.898;6.502;2023-01-01T05:06:55;10.48;;;2.60;;
58260;SDS011;44058;52.898;6.502;2023-01-01T05:09:22;4.93;;;2.10;;
58260;SDS011;44058;52.898;6.502;2023-01-01T05:11:48;8.18;;;1.90;;
58260;SDS011;44058;52.898;6.502;2023-01-01T05:14:14;8.77;;;2.10;;
58260;SDS011;44058;52.898;6.502;2023-01-01T05:16:40;4.68;;;2.17;;
58260;SDS011;44058;52.898;6.502;2023-01-01T05:19:06;10.68;;;2.22;;
58260;SDS011;44058;52.898;6.502;2023-01-01T05:21:36;13.50;;;2.80;;
58260;SDS011;44058;52.898;6.502;2023-01-01T05:24:07;5.53;;;1.95;;
58260;SDS011;44058;52.898;6.502;2023-01-01T05:26:35;6.40;;;1.85;;
58260;SDS011;44058;52.898;6.502;2023-01-01T05:29:01;5.97;;;1.65;;
58260;SDS011;44058;52.898;6.502;2023-01-01T05:31:29;8.38;;;1.77;;
58260;SDS011;44058;52.898;6.502;2023-01-01T05:33:56;7.72;;;1.90;;
58260;SDS011;44058;52.898;6.502;2023-01-01T05:36:24;5.25;;;1.67;;
58260;SDS011;44058;52.898;6.502;2023-01-01T05:38:51;6.47;;;1.60;;
58260;SDS011;44058;52.898;6.502;2023-01-01T05:41:17;4.65;;;1.80;;
58260;SDS011;44058;52.898;6.502;2023-01-01T05:43:44;4.68;;;1.70;;
58260;SDS011;44058;52.898;6.502;2023-01-01T05:46:12;4.22;;;1.73;;
58260;SDS011;44058;52.898;6.502;2023-01-01T05:48:38;5.72;;;1.50;;
58260;SDS011;44058;52.898;6.502;2023-01-01T05:51:05;4.45;;;1.00;;
58260;SDS011;44058;52.898;6.502;2023-01-01T05:53:32;5.30;;;1.33;;
58260;SDS011;44058;52.898;6.502;2023-01-01T05:55:58;3.13;;;0.90;;
58260;SDS011;44058;52.898;6.502;2023-01-01T05:58:24;3.55;;;0.88;;
58260;SDS011;44058;52.898;6.502;2023-01-01T06:00:51;2.97;;;1.08;;
58260;SDS011;44058;52.898;6.502;2023-01-01T06:03:17;4.63;;;0.90;;
58260;SDS011;44058;52.898;6.502;2023-01-01T06:05:43;2.13;;;0.70;;
58260;SDS011;44058;52.898;6.502;2023-01-01T06:08:09;7.95;;;1.27;;
58260;SDS011;44058;52.898;6.502;2023-01-01T06:10:35;3.15;;;1.00;;
58260;SDS011;44058;52.898;6.502;2023-01-01T06:13:02;5.07;;;1.30;;
58260;SDS011;44058;52.898;6.502;2023-01-01T06:15:28;4.68;;;1.40;;
58260;SDS011;44058;52.898;6.502;2023-01-01T06:17:54;5.95;;;1.13;;
58260;SDS011;44058;52.898;6.502;2023-01-01T06:20:20;4.72;;;1.02;;
58260;SDS011;44058;52.898;6.502;2023-01-01T06:22:46;4.15;;;1.40;;
58260;SDS011;44058;52.898;6.502;2023-01-01T06:25:13;2.53;;;1.05;;
58260;SDS011;44058;52.898;6.502;2023-01-01T06:27:39;2.35;;;0.98;;
58260;SDS011;44058;52.898;6.502;2023-01-01T06:30:05;3.58;;;1.17;;
58260;SDS011;44058;52.898;6.502;2023-01-01T06:32:46;5.13;;;1.13;;
58260;SDS011;44058;52.898;6.502;2023-01-01T06:35:13;4.38;;;1.15;;
58260;SDS011;44058;52.898;6.502;2023-01-01T06:37:39;4.43;;;1.20;;
58260;SDS011;44058;52.898;6.502;2023-01-01T06:40:06;2.20;;;0.98;;
58260;SDS011;44058;52.898;6.502;2023-01-01T06:42:33;5.20;;;1.52;;
58260;SDS011;44058;52.898;6.502;2023-01-01T06:45:00;5.40;;;1.42;;
58260;SDS011;44058;52.898;6.502;2023-01-01T06:47:26;6.70;;;1.85;;
58260;SDS011;44058;52.898;6.502;2023-01-01T06:49:52;6.10;;;1.38;;
58260;SDS011;44058;52.898;6.502;2023-01-01T06:52:18;4.25;;;1.35;;
58260;SDS011;44058;52.898;6.502;2023-01-01T06:54:44;4.35;;;1.17;;
58260;SDS011;44058;52.898;6.502;2023-01-01T06:57:10;8.95;;;1.73;;
58260;SDS011;44058;52.898;6.502;2023-01-01T06:59:39;5.05;;;1.45;;
58260;SDS011;44058;52.898;6.502;2023-01-01T07:02:06;5.65;;;1.08;;
58260;SDS011;44058;52.898;6.502;2023-01-01T07:04:34;6.65;;;1.30;;
58260;SDS011;44058;52.898;6.502;2023-01-01T07:07:00;7.30;;;1.80;;
58260;SDS011;44058;52.898;6.502;2023-01-01T07:09:26;5.90;;;1.30;;
58260;SDS011;44058;52.898;6.502;2023-01-01T07:11:52;6.00;;;1.85;;
58260;SDS011;44058;52.898;6.502;2023-01-01T07:14:21;6.32;;;1.98;;
58260;SDS011;44058;52.898;6.502;2023-01-01T07:16:48;6.65;;;2.20;;
58260;SDS011;44058;52.898;6.502;2023-01-01T07:19:15;7.32;;;1.50;;
58260;SDS011;44058;52.898;6.502;2023-01-01T07:21:59;8.48;;;1.85;;
58260;SDS011;44058;52.898;6.502;2023-01-01T07:24:25;5.93;;;1.50;;
58260;SDS011;44058;52.898;6.502;2023-01-01T07:26:52;5.97;;;1.60;;
58260;SDS011;44058;52.898;6.502;2023-01-01T07:29:18;6.63;;;1.80;;
58260;SDS011;44058;52.898;6.502;2023-01-01T07:31:44;6.38;;;1.55;;
58260;SDS011;44058;52.898;6.502;2023-01-01T07:34:12;4.57;;;1.83;;
58260;SDS011;44058;52.898;6.502;2023-01-01T07:36:39;8.70;;;1.80;;
58260;SDS011;44058;52.898;6.502;2023-01-01T07:39:05;8.25;;;1.90;;
58260;SDS011;44058;52.898;6.502;2023-01-01T07:41:32;6.85;;;1.40;;
58260;SDS011;44058;52.898;6.502;2023-01-01T07:43:58;5.63;;;1.63;;
58260;SDS011;44058;52.898;6.502;2023-01-01T07:46:24;6.70;;;1.95;;
58260;SDS011;44058;52.898;6.502;2023-01-01T07:48:50;6.75;;;1.98;;
58260;SDS011;44058;52.898;6.502;2023-01-01T07:51:16;8.07;;;1.73;;
58260;SDS011;44058;52.898;6.502;2023-01-01T07:53:43;7.15;;;2.03;;
58260;SDS011;44058;52.898;6.502;2023-01-01T07:56:09;7.22;;;2.05;;
58260;SDS011;44058;52.898;6.502;2023-01-01T07:58:39;8.35;;;1.70;;
58260;SDS011;44058;52.898;6.502;2023-01-01T08:01:08;9.20;;;1.95;;
58260;SDS011;44058;52.898;6.502;2023-01-01T08:03:34;8.48;;;1.58;;
58260;SDS011;44058;52.898;6.502;2023-01-01T08:06:07;7.05;;;1.75;;
58260;SDS011;44058;52.898;6.502;2023-01-01T08:08:33;8.82;;;1.90;;
58260;SDS011;44058;52.898;6.502;2023-01-01T08:11:04;12.25;;;2.50;;
58260;SDS011;44058;52.898;6.502;2023-01-01T08:13:30;7.55;;;1.55;;
58260;SDS011;44058;52.898;6.502;2023-01-01T08:15:57;10.68;;;1.85;;
58260;SDS011;44058;52.898;6.502;2023-01-01T08:18:23;6.03;;;1.48;;
58260;SDS011;44058;52.898;6.502;2023-01-01T08:20:53;7.18;;;1.38;;
58260;SDS011;44058;52.898;6.502;2023-01-01T08:23:19;10.90;;;2.20;;
58260;SDS011;44058;52.898;6.502;2023-01-01T08:25:45;7.05;;;1.70;;
58260;SDS011;44058;52.898;6.502;2023-01-01T08:28:11;9.13;;;1.77;;
58260;SDS011;44058;52.898;6.502;2023-01-01T08:30:37;7.35;;;1.75;;
58260;SDS011;44058;52.898;6.502;2023-01-01T08:33:04;6.30;;;1.65;;
58260;SDS011;44058;52.898;6.502;2023-01-01T08:35:35;6.40;;;1.73;;
58260;SDS011;44058;52.898;6.502;2023-01-01T08:38:02;6.60;;;1.80;;
58260;SDS011;44058;52.898;6.502;2023-01-01T08:40:38;8.27;;;1.92;;
58260;SDS011;44058;52.898;6.502;2023-01-01T08:43:04;10.13;;;1.80;;
58260;SDS011;44058;52.898;6.502;2023-01-01T08:45:39;10.10;;;1.77;;
58260;SDS011;44058;52.898;6.502;2023-01-01T08:48:05;9.30;;;2.00;;
58260;SDS011;44058;52.898;6.502;2023-01-01T08:50:32;6.30;;;1.67;;
58260;SDS011;44058;52.898;6.502;2023-01-01T08:52:58;10.07;;;1.95;;
58260;SDS011;44058;52.898;6.502;2023-01-01T08:55:24;7.95;;;2.33;;
58260;SDS011;44058;52.898;6.502;2023-01-01T08:57:51;9.23;;;1.80;;
58260;SDS011;44058;52.898;6.502;2023-01-01T09:00:19;9.82;;;2.55;;
58260;SDS011;44058;52.898;6.502;2023-01-01T09:02:45;5.73;;;1.30;;
58260;SDS011;44058;52.898;6.502;2023-01-01T09:05:11;4.93;;;1.65;;
58260;SDS011;44058;52.898;6.502;2023-01-01T09:07:38;12.60;;;2.25;;
58260;SDS011;44058;52.898;6.502;2023-01-01T09:10:05;9.40;;;1.30;;
58260;SDS011;44058;52.898;6.502;2023-01-01T09:12:32;9.15;;;1.77;;
58260;SDS011;44058;52.898;6.502;2023-01-01T09:14:58;6.97;;;1.45;;
58260;SDS011;44058;52.898;6.502;2023-01-01T09:17:25;9.52;;;1.92;;
58260;SDS011;44058;52.898;6.502;2023-01-01T09:19:51;8.77;;;1.92;;
58260;SDS011;44058;52.898;6.502;2023-01-01T09:22:20;8.57;;;2.00;;
58260;SDS011;44058;52.898;6.502;2023-01-01T09:24:46;6.43;;;1.85;;
58260;SDS011;44058;52.898;6.502;2023-01-01T09:27:12;9.48;;;1.73;;
58260;SDS011;44058;52.898;6.502;2023-01-01T09:29:39;11.13;;;1.63;;
58260;SDS011;44058;52.898;6.502;2023-01-01T09:32:05;7.53;;;2.05;;
58260;SDS011;44058;52.898;6.502;2023-01-01T09:34:31;4.43;;;1.27;;
58260;SDS011;44058;52.898;6.502;2023-01-01T09:36:58;9.50;;;1.98;;
58260;SDS011;44058;52.898;6.502;2023-01-01T09:39:24;10.00;;;1.75;;
58260;SDS011;44058;52.898;6.502;2023-01-01T09:42:01;10.10;;;2.25;;
58260;SDS011;44058;52.898;6.502;2023-01-01T09:47:33;12.60;;;2.40;;
58260;SDS011;44058;52.898;6.502;2023-01-01T09:52:42;10.60;;;2.42;;
58260;SDS011;44058;52.898;6.502;2023-01-01T09:55:21;10.00;;;2.28;;
58260;SDS011;44058;52.898;6.502;2023-01-01T09:57:49;6.47;;;2.05;;
58260;SDS011;44058;52.898;6.502;2023-01-01T10:00:16;6.90;;;2.20;;
58260;SDS011;44058;52.898;6.502;2023-01-01T10:02:51;7.70;;;2.33;;
58260;SDS011;44058;52.898;6.502;2023-01-01T10:05:31;12.32;;;2.42;;
58260;SDS011;44058;52.898;6.502;2023-01-01T10:08:19;8.38;;;2.38;;
58260;SDS011;44058;52.898;6.502;2023-01-01T10:10:49;10.65;;;1.83;;
58260;SDS011;44058;52.898;6.502;2023-01-01T10:15:52;9.57;;;1.80;;
58260;SDS011;44058;52.898;6.502;2023-01-01T10:18:20;6.78;;;1.55;;
58260;SDS011;44058;52.898;6.502;2023-01-01T10:21:03;9.82;;;1.95;;
58260;SDS011;44058;52.898;6.502;2023-01-01T10:23:33;11.30;;;2.25;;
58260;SDS011;44058;52.898;6.502;2023-01-01T10:26:04;7.00;;;1.60;;
58260;SDS011;44058;52.898;6.502;2023-01-01T10:28:33;7.13;;;1.85;;
58260;SDS011;44058;52.898;6.502;2023-01-01T10:31:09;11.50;;;2.00;;
58260;SDS011;44058;52.898;6.502;2023-01-01T10:33:39;10.10;;;1.63;;
58260;SDS011;44058;52.898;6.502;2023-01-01T10:36:06;8.23;;;1.75;;
58260;SDS011;44058;52.898;6.502;2023-01-01T10:38:35;6.55;;;1.30;;
58260;SDS011;44058;52.898;6.502;2023-01-01T10:41:02;11.13;;;1.90;;
58260;SDS011;44058;52.898;6.502;2023-01-01T10:43:31;10.82;;;1.73;;
58260;SDS011;44058;52.898;6.502;2023-01-01T10:45:59;9.90;;;1.55;;
58260;SDS011;44058;52.898;6.502;2023-01-01T10:48:27;9.60;;;1.98;;
58260;SDS011;44058;52.898;6.502;2023-01-01T10:51:00;13.05;;;2.28;;
58260;SDS011;44058;52.898;6.502;2023-01-01T10:53:37;7.72;;;1.88;;
58260;SDS011;44058;52.898;6.502;2023-01-01T10:58:35;8.25;;;1.92;;
58260;SDS011;44058;52.898;6.502;2023-01-01T11:01:03;9.48;;;2.17;;
58260;SDS011;44058;52.898;6.502;2023-01-01T11:03:30;11.55;;;2.38;;
58260;SDS011;44058;52.898;6.502;2023-01-01T11:06:00;10.23;;;1.48;;
58260;SDS011;44058;52.898;6.502;2023-01-01T11:08:27;8.40;;;1.70;;
58260;SDS011;44058;52.898;6.502;2023-01-01T11:10:55;8.93;;;1.85;;
58260;SDS011;44058;52.898;6.502;2023-01-01T11:13:22;8.00;;;1.85;;
58260;SDS011;44058;52.898;6.502;2023-01-01T11:15:48;7.45;;;1.80;;
58260;SDS011;44058;52.898;6.502;2023-01-01T11:18:20;11.20;;;1.95;;
58260;SDS011;44058;52.898;6.502;2023-01-01T11:20:51;6.28;;;1.70;;
58260;SDS011;44058;52.898;6.502;2023-01-01T11:23:26;8.98;;;2.05;;
58260;SDS011;44058;52.898;6.502;2023-01-01T11:28:23;10.88;;;1.85;;
58260;SDS011;44058;52.898;6.502;2023-01-01T11:31:02;11.45;;;2.10;;
58260;SDS011;44058;52.898;6.502;2023-01-01T11:33:30;11.07;;;2.33;;
58260;SDS011;44058;52.898;6.502;2023-01-01T11:35:57;9.55;;;2.20;;
58260;SDS011;44058;52.898;6.502;2023-01-01T11:38:24;6.28;;;2.17;;
58260;SDS011;44058;52.898;6.502;2023-01-01T11:40:54;9.20;;;1.95;;
58260;SDS011;44058;52.898;6.502;2023-01-01T11:43:23;8.13;;;2.33;;
58260;SDS011;44058;52.898;6.502;2023-01-01T11:45:49;7.22;;;1.80;;
58260;SDS011;44058;52.898;6.502;2023-01-01T11:48:18;13.40;;;1.98;;
58260;SDS011;44058;52.898;6.502;2023-01-01T11:50:50;10.05;;;2.03;;
58260;SDS011;44058;52.898;6.502;2023-01-01T11:53:18;8.52;;;2.03;;
58260;SDS011;44058;52.898;6.502;2023-01-01T11:55:49;9.68;;;1.73;;
58260;SDS011;44058;52.898;6.502;2023-01-01T11:58:20;8.95;;;1.70;;
58260;SDS011;44058;52.898;6.502;2023-01-01T12:00:50;13.15;;;3.10;;
58260;SDS011;44058;52.898;6.502;2023-01-01T12:10:50;9.05;;;1.80;;
58260;SDS011;44058;52.898;6.502;2023-01-01T12:13:19;10.48;;;1.83;;
58260;SDS011;44058;52.898;6.502;2023-01-01T12:15:59;12.90;;;2.17;;
58260;SDS011;44058;52.898;6.502;2023-01-01T12:18:29;10.25;;;2.50;;
58260;SDS011;44058;52.898;6.502;2023-01-01T12:21:24;11.60;;;2.03;;
58260;SDS011;44058;52.898;6.502;2023-01-01T12:24:10;9.15;;;2.28;;
58260;SDS011;44058;52.898;6.502;2023-01-01T12:26:51;10.93;;;2.47;;
58260;SDS011;44058;52.898;6.502;2023-01-01T12:29:24;15.25;;;2.75;;
58260;SDS011;44058;52.898;6.502;2023-01-01T12:32:01;8.88;;;1.83;;
58260;SDS011;44058;52.898;6.502;2023-01-01T12:34:34;10.13;;;2.08;;
58260;SDS011;44058;52.898;6.502;2023-01-01T12:37:25;5.63;;;1.92;;
58260;SDS011;44058;52.898;6.502;2023-01-01T12:47:28;10.48;;;1.90;;
58260;SDS011;44058;52.898;6.502;2023-01-01T12:50:06;8.68;;;2.00;;
58260;SDS011;44058;52.898;6.502;2023-01-01T13:00:55;8.68;;;1.92;;
58260;SDS011;44058;52.898;6.502;2023-01-01T13:03:25;6.90;;;1.65;;
58260;SDS011;44058;52.898;6.502;2023-01-01T13:05:54;6.53;;;2.00;;
58260;SDS011;44058;52.898;6.502;2023-01-01T13:08:21;8.32;;;2.03;;
58260;SDS011;44058;52.898;6.502;2023-01-01T13:10:48;10.13;;;2.25;;
58260;SDS011;44058;52.898;6.502;2023-01-01T13:13:15;10.80;;;2.33;;
58260;SDS011;44058;52.898;6.502;2023-01-01T13:15:46;14.85;;;2.90;;
58260;SDS011;44058;52.898;6.502;2023-01-01T13:20:39;15.10;;;2.75;;
58260;SDS011;44058;52.898;6.502;2023-01-01T13:23:39;10.35;;;1.77;;
58260;SDS011;44058;52.898;6.502;2023-01-01T13:26:29;9.90;;;2.00;;
58260;SDS011;44058;52.898;6.502;2023-01-01T13:28:38;11.20;;;2.15;;
58260;SDS011;44058;52.898;6.502;2023-01-01T13:31:04;10.52;;;2.40;;
58260;SDS011;44058;52.898;6.502;2023-01-01T13:33:30;9.38;;;2.30;;
58260;SDS011;44058;52.898;6.502;2023-01-01T13:44:09;11.38;;;2.33;;
58260;SDS011;44058;52.898;6.502;2023-01-01T13:54:29;16.13;;;3.08;;
58260;SDS011;44058;52.898;6.502;2023-01-01T13:57:03;9.65;;;2.70;;
58260;SDS011;44058;52.898;6.502;2023-01-01T14:04:33;11.90;;;2.50;;
58260;SDS011;44058;52.898;6.502;2023-01-01T14:07:09;9.93;;;2.65;;
58260;SDS011;44058;52.898;6.502;2023-01-01T14:09:38;11.30;;;2.33;;
58260;SDS011;44058;52.898;6.502;2023-01-01T14:12:18;12.55;;;2.25;;
58260;SDS011;44058;52.898;6.502;2023-01-01T14:14:44;13.50;;;2.50;;
58260;SDS011;44058;52.898;6.502;2023-01-01T14:17:12;10.52;;;3.08;;
58260;SDS011;44058;52.898;6.502;2023-01-01T14:19:39;10.83;;;2.33;;
58260;SDS011;44058;52.898;6.502;2023-01-01T14:22:06;11.52;;;2.40;;
58260;SDS011;44058;52.898;6.502;2023-01-01T14:24:34;8.57;;;2.45;;
58260;SDS011;44058;52.898;6.502;2023-01-01T14:27:03;8.32;;;2.08;;
58260;SDS011;44058;52.898;6.502;2023-01-01T14:29:30;9.48;;;2.28;;
58260;SDS011;44058;52.898;6.502;2023-01-01T14:31:57;9.65;;;2.30;;
58260;SDS011;44058;52.898;6.502;2023-01-01T14:34:31;14.17;;;3.13;;
58260;SDS011;44058;52.898;6.502;2023-01-01T14:37:03;14.20;;;2.80;;
58260;SDS011;44058;52.898;6.502;2023-01-01T14:39:33;11.52;;;2.92;;
58260;SDS011;44058;52.898;6.502;2023-01-01T14:42:01;8.45;;;2.83;;
58260;SDS011;44058;52.898;6.502;2023-01-01T14:44:43;10.35;;;2.65;;
58260;SDS011;44058;52.898;6.502;2023-01-01T14:47:22;12.32;;;2.90;;
58260;SDS011;44058;52.898;6.502;2023-01-01T14:50:04;10.13;;;2.78;;
58260;SDS011;44058;52.898;6.502;2023-01-01T14:52:41;9.25;;;3.00;;
58260;SDS011;44058;52.898;6.502;2023-01-01T14:55:11;10.05;;;2.85;;
58260;SDS011;44058;52.898;6.502;2023-01-01T14:57:43;9.00;;;2.63;;
58260;SDS011;44058;52.898;6.502;2023-01-01T15:02:37;10.20;;;2.33;;
58260;SDS011;44058;52.898;6.502;2023-01-01T15:07:57;12.90;;;2.70;;
58260;SDS011;44058;52.898;6.502;2023-01-01T15:10:24;9.27;;;2.55;;
58260;SDS011;44058;52.898;6.502;2023-01-01T15:12:50;11.00;;;3.10;;
58260;SDS011;44058;52.898;6.502;2023-01-01T15:18:01;9.98;;;2.72;;
58260;SDS011;44058;52.898;6.502;2023-01-01T15:20:27;11.48;;;2.85;;
58260;SDS011;44058;52.898;6.502;2023-01-01T15:22:53;12.25;;;3.15;;
58260;SDS011;44058;52.898;6.502;2023-01-01T15:25:20;12.32;;;3.20;;
58260;SDS011;44058;52.898;6.502;2023-01-01T15:27:47;8.18;;;2.90;;
58260;SDS011;44058;52.898;6.502;2023-01-01T15:30:21;11.13;;;2.90;;
58260;SDS011;44058;52.898;6.502;2023-01-01T15:32:47;14.52;;;3.38;;
58260;SDS011;44058;52.898;6.502;2023-01-01T15:35:17;16.15;;;3.25;;
58260;SDS011;44058;52.898;6.502;2023-01-01T15:42:43;11.90;;;2.80;;
58260;SDS011;44058;52.898;6.502;2023-01-01T15:45:18;13.00;;;3.00;;
58260;SDS011;44058;52.898;6.502;2023-01-01T15:47:46;11.40;;;2.50;;
58260;SDS011;44058;52.898;6.502;2023-01-01T15:50:23;9.88;;;2.50;;
58260;SDS011;44058;52.898;6.502;2023-01-01T15:52:54;15.05;;;3.03;;
58260;SDS011;44058;52.898;6.502;2023-01-01T15:55:20;11.27;;;2.78;;
58260;SDS011;44058;52.898;6.502;2023-01-01T15:57:47;13.32;;;3.15;;
58260;SDS011;44058;52.898;6.502;2023-01-01T16:00:21;12.65;;;2.83;;
58260;SDS011;44058;52.898;6.502;2023-01-01T16:02:47;12.63;;;3.40;;
58260;SDS011;44058;52.898;6.502;2023-01-01T16:05:15;11.38;;;2.75;;
58260;SDS011;44058;52.898;6.502;2023-01-01T16:07:43;13.82;;;3.17;;
58260;SDS011;44058;52.898;6.502;2023-01-01T16:10:13;12.80;;;2.22;;
58260;SDS011;44058;52.898;6.502;2023-01-01T16:12:39;12.85;;;2.65;;
58260;SDS011;44058;52.898;6.502;2023-01-01T16:15:06;12.05;;;3.05;;
58260;SDS011;44058;52.898;6.502;2023-01-01T16:17:32;10.13;;;2.75;;
58260;SDS011;44058;52.898;6.502;2023-01-01T16:19:58;12.52;;;2.65;;
58260;SDS011;44058;52.898;6.502;2023-01-01T16:22:26;13.38;;;3.05;;
58260;SDS011;44058;52.898;6.502;2023-01-01T16:24:52;13.15;;;3.72;;